sensor_id;sensor_type;location;lat;lon;timestamp;pressure;altitude;pressure_sealevel;temperature;humidity
37304;BME280;23188;51.188;16.374;2023-01-31T00:02:51;99702.95;;;4.75;97.63
37304;BME280;23188;51.188;16.374;2023-01-31T00:07:21;99698.86;;;4.73;96.44
37304;BME280;23188;51.188;16.374;2023-01-31T00:11:26;99691.88;;;4.72;95.57
37304;BME280;23188;51.188;16.374;2023-01-31T00:47:09;99761.53;;;4.60;94.67
37304;BME280;23188;51.188;16.374;2023-01-31T00:51:14;99762.27;;;4.62;94.72
37304;BME280;23188;51.188;16.374;2023-01-31T00:55:21;99769.07;;;4.55;94.70
37304;BME280;23188;51.188;16.374;2023-01-31T00:59:32;99773.42;;;4.52;94.94
37304;BME280;23188;51.188;16.374;2023-01-31T01:03:38;99771.04;;;4.54;94.83
37304;BME280;23188;51.188;16.374;2023-01-31T01:12:37;99795.95;;;4.43;95.35
37304;BME280;23188;51.188;16.374;2023-01-31T01:16:42;99801.77;;;4.35;95.60
37304;BME280;23188;51.188;16.374;2023-01-31T01:20:45;99810.45;;;4.31;96.00
37304;BME280;23188;51.188;16.374;2023-01-31T01:25:02;99806.89;;;4.26;95.63
37304;BME280;23188;51.188;16.374;2023-01-31T01:29:06;99815.45;;;4.32;94.29
37304;BME280;23188;51.188;16.374;2023-01-31T01:33:41;99817.48;;;4.31;93.85
37304;BME280;23188;51.188;16.374;2023-01-31T01:37:45;99820.98;;;4.28;93.15
37304;BME280;23188;51.188;16.374;2023-01-31T01:41:51;99821.85;;;4.28;93.59
37304;BME280;23188;51.188;16.374;2023-01-31T01:45:59;99831.98;;;4.26;92.82
37304;BME280;23188;51.188;16.374;2023-01-31T01:50:15;99836.27;;;4.22;92.28
37304;BME280;23188;51.188;16.374;2023-01-31T01:54:42;99834.54;;;4.16;91.91
37304;BME280;23188;51.188;16.374;2023-01-31T02:34:57;99904.81;;;4.00;87.40
37304;BME280;23188;51.188;16.374;2023-01-31T02:39:37;99916.16;;;3.98;87.00
37304;BME280;23188;51.188;16.374;2023-01-31T02:44:26;99915.83;;;3.98;86.36
37304;BME280;23188;51.188;16.374;2023-01-31T02:48:56;99923.59;;;3.94;85.82
37304;BME280;23188;51.188;16.374;2023-01-31T02:54:20;99931.16;;;3.88;87.71
37304;BME280;23188;51.188;16.374;2023-01-31T02:59:09;99933.84;;;3.83;88.93
37304;BME280;23188;51.188;16.374;2023-01-31T03:03:32;99940.88;;;3.83;89.35
37304;BME280;23188;51.188;16.374;2023-01-31T03:07:37;99954.28;;;3.82;89.05
37304;BME280;23188;51.188;16.374;2023-01-31T03:16:28;99978.25;;;3.83;87.95
37304;BME280;23188;51.188;16.374;2023-01-31T03:20:58;99977.07;;;3.85;88.75
37304;BME280;23188;51.188;16.374;2023-01-31T03:25:32;99994.17;;;3.87;89.99
37304;BME280;23188;51.188;16.374;2023-01-31T03:29:38;99997.05;;;3.83;90.42
37304;BME280;23188;51.188;16.374;2023-01-31T03:33:56;99997.80;;;3.85;91.47
37304;BME280;23188;51.188;16.374;2023-01-31T03:47:44;100006.45;;;3.78;91.11
37304;BME280;23188;51.188;16.374;2023-01-31T03:51:45;100007.17;;;3.78;91.06
37304;BME280;23188;51.188;16.374;2023-01-31T03:55:53;100006.98;;;3.78;91.72
37304;BME280;23188;51.188;16.374;2023-01-31T04:00:43;100023.02;;;3.73;92.48
37304;BME280;23188;51.188;16.374;2023-01-31T04:04:54;100037.27;;;3.69;93.27
37304;BME280;23188;51.188;16.374;2023-01-31T04:08:59;100045.19;;;3.63;92.64
37304;BME280;23188;51.188;16.374;2023-01-31T04:13:05;100048.20;;;3.53;93.19
37304;BME280;23188;51.188;16.374;2023-01-31T04:17:07;100046.43;;;3.47;94.46
37304;BME280;23188;51.188;16.374;2023-01-31T04:21:13;100053.69;;;3.36;95.81
37304;BME280;23188;51.188;16.374;2023-01-31T04:25:16;100055.98;;;3.29;95.64
37304;BME280;23188;51.188;16.374;2023-01-31T04:29:19;100060.13;;;3.24;95.96
37304;BME280;23188;51.188;16.374;2023-01-31T04:33:21;100069.73;;;3.18;96.58
37304;BME280;23188;51.188;16.374;2023-01-31T04:37:24;100080.86;;;3.17;96.41
37304;BME280;23188;51.188;16.374;2023-01-31T04:41:26;100087.05;;;3.15;96.53
37304;BME280;23188;51.188;16.374;2023-01-31T04:45:28;100092.46;;;3.22;96.15
37304;BME280;23188;51.188;16.374;2023-01-31T04:49:30;100096.98;;;3.13;95.59
37304;BME280;23188;51.188;16.374;2023-01-31T04:58:26;100094.27;;;3.21;94.46
37304;BME280;23188;51.188;16.374;2023-01-31T05:02:29;100095.86;;;3.27;94.25
37304;BME280;23188;51.188;16.374;2023-01-31T05:06:32;100086.99;;;3.23;94.15
37304;BME280;23188;51.188;16.374;2023-01-31T05:10:34;100104.54;;;3.19;94.72
37304;BME280;23188;51.188;16.374;2023-01-31T05:14:37;100099.59;;;3.07;94.37
37304;BME280;23188;51.188;16.374;2023-01-31T05:18:40;100115.86;;;3.04;96.02
37304;BME280;23188;51.188;16.374;2023-01-31T05:23:09;100122.63;;;2.92;97.94
37304;BME280;23188;51.188;16.374;2023-01-31T05:27:11;100122.34;;;3.01;98.60
37304;BME280;23188;51.188;16.374;2023-01-31T05:31:13;100117.52;;;2.96;98.66
37304;BME280;23188;51.188;16.374;2023-01-31T05:35:19;100116.23;;;2.90;99.37
37304;BME280;23188;51.188;16.374;2023-01-31T05:39:21;100123.70;;;2.85;98.57
37304;BME280;23188;51.188;16.374;2023-01-31T05:43:26;100132.81;;;2.78;97.68
37304;BME280;23188;51.188;16.374;2023-01-31T05:47:28;100132.17;;;2.70;97.16
37304;BME280;23188;51.188;16.374;2023-01-31T05:51:30;100133.29;;;2.58;97.68
37304;BME280;23188;51.188;16.374;2023-01-31T05:55:32;100138.58;;;2.54;97.52
37304;BME280;23188;51.188;16.374;2023-01-31T05:59:34;100149.83;;;2.39;98.06
37304;BME280;23188;51.188;16.374;2023-01-31T06:03:36;100147.77;;;2.38;97.52
37304;BME280;23188;51.188;16.374;2023-01-31T06:07:38;100154.40;;;2.28;97.39
37304;BME280;23188;51.188;16.374;2023-01-31T06:11:42;100157.71;;;2.13;97.97
37304;BME280;23188;51.188;16.374;2023-01-31T06:15:48;100167.86;;;2.02;98.79
37304;BME280;23188;51.188;16.374;2023-01-31T06:19:51;100162.12;;;2.09;99.76
37304;BME280;23188;51.188;16.374;2023-01-31T06:23:53;100161.95;;;2.20;100.00
37304;BME280;23188;51.188;16.374;2023-01-31T06:27:55;100166.27;;;2.25;100.00
37304;BME280;23188;51.188;16.374;2023-01-31T06:31:56;100163.98;;;2.28;100.00
37304;BME280;23188;51.188;16.374;2023-01-31T06:35:59;100176.92;;;2.29;100.00
37304;BME280;23188;51.188;16.374;2023-01-31T06:40:04;100181.54;;;2.24;100.00
37304;BME280;23188;51.188;16.374;2023-01-31T06:44:06;100191.91;;;2.26;100.00
37304;BME280;23188;51.188;16.374;2023-01-31T06:48:08;100190.02;;;2.40;100.00
37304;BME280;23188;51.188;16.374;2023-01-31T06:52:10;100203.43;;;2.56;99.81
37304;BME280;23188;51.188;16.374;2023-01-31T06:56:13;100206.19;;;2.67;99.21
37304;BME280;23188;51.188;16.374;2023-01-31T07:00:16;100202.86;;;2.74;98.11
37304;BME280;23188;51.188;16.374;2023-01-31T07:04:19;100207.80;;;2.77;97.87
37304;BME280;23188;51.188;16.374;2023-01-31T07:08:20;100205.05;;;2.83;97.12
37304;BME280;23188;51.188;16.374;2023-01-31T07:12:22;100196.48;;;2.89;96.37
37304;BME280;23188;51.188;16.374;2023-01-31T07:16:24;100206.00;;;3.02;95.39
37304;BME280;23188;51.188;16.374;2023-01-31T07:20:26;100221.48;;;3.15;94.41
37304;BME280;23188;51.188;16.374;2023-01-31T07:24:28;100216.30;;;3.24;93.87
37304;BME280;23188;51.188;16.374;2023-01-31T07:28:30;100222.77;;;3.31;93.88
37304;BME280;23188;51.188;16.374;2023-01-31T07:32:32;100228.65;;;3.29;94.30
37304;BME280;23188;51.188;16.374;2023-01-31T07:36:40;100241.05;;;3.30;94.67
37304;BME280;23188;51.188;16.374;2023-01-31T07:41:10;100247.88;;;3.26;94.31
37304;BME280;23188;51.188;16.374;2023-01-31T07:45:14;100250.02;;;3.26;94.35
37304;BME280;23188;51.188;16.374;2023-01-31T07:49:25;100256.16;;;3.19;94.37
37304;BME280;23188;51.188;16.374;2023-01-31T07:53:32;100253.59;;;3.21;94.30
37304;BME280;23188;51.188;16.374;2023-01-31T07:57:35;100260.16;;;3.26;94.31
37304;BME280;23188;51.188;16.374;2023-01-31T08:01:37;100262.84;;;3.32;93.76
37304;BME280;23188;51.188;16.374;2023-01-31T08:06:09;100260.30;;;3.40;93.51
37304;BME280;23188;51.188;16.374;2023-01-31T08:10:11;100263.86;;;3.39;93.43
37304;BME280;23188;51.188;16.374;2023-01-31T08:14:14;100264.75;;;3.32;93.65
37304;BME280;23188;51.188;16.374;2023-01-31T08:18:16;100263.70;;;3.39;94.12
37304;BME280;23188;51.188;16.374;2023-01-31T08:22:18;100265.83;;;3.49;93.80
37304;BME280;23188;51.188;16.374;2023-01-31T08:26:21;100257.27;;;3.68;94.15
37304;BME280;23188;51.188;16.374;2023-01-31T08:30:23;100252.27;;;3.87;93.17
37304;BME280;23188;51.188;16.374;2023-01-31T08:34:25;100261.13;;;3.98;92.50
37304;BME280;23188;51.188;16.374;2023-01-31T08:38:31;100251.19;;;4.07;89.13
37304;BME280;23188;51.188;16.374;2023-01-31T08:42:33;100265.91;;;4.26;88.94
37304;BME280;23188;51.188;16.374;2023-01-31T08:46:36;100274.80;;;4.43;91.65
37304;BME280;23188;51.188;16.374;2023-01-31T08:50:38;100271.25;;;4.34;92.92
37304;BME280;23188;51.188;16.374;2023-01-31T08:54:42;100279.02;;;4.24;95.00
37304;BME280;23188;51.188;16.374;2023-01-31T08:58:49;100291.02;;;4.03;98.54
37304;BME280;23188;51.188;16.374;2023-01-31T09:02:52;100291.92;;;3.96;99.77
37304;BME280;23188;51.188;16.374;2023-01-31T09:06:56;100291.11;;;3.95;100.00
37304;BME280;23188;51.188;16.374;2023-01-31T09:10:58;100297.04;;;3.96;100.00
37304;BME280;23188;51.188;16.374;2023-01-31T09:15:02;100304.67;;;3.98;100.00
37304;BME280;23188;51.188;16.374;2023-01-31T09:19:05;100308.66;;;3.98;100.00
37304;BME280;23188;51.188;16.374;2023-01-31T09:23:07;100302.46;;;4.06;99.95
37304;BME280;23188;51.188;16.374;2023-01-31T09:27:09;100299.60;;;4.04;99.90
37304;BME280;23188;51.188;16.374;2023-01-31T09:31:14;100304.44;;;4.08;99.82
37304;BME280;23188;51.188;16.374;2023-01-31T09:35:16;100303.50;;;4.16;99.92
37304;BME280;23188;51.188;16.374;2023-01-31T09:39:20;100301.64;;;4.34;99.63
37304;BME280;23188;51.188;16.374;2023-01-31T09:43:29;100298.16;;;4.43;97.83
37304;BME280;23188;51.188;16.374;2023-01-31T09:47:51;100297.53;;;4.64;97.52
37304;BME280;23188;51.188;16.374;2023-01-31T09:51:59;100306.52;;;4.73;96.48
37304;BME280;23188;51.188;16.374;2023-01-31T10:01:01;100293.41;;;4.90;94.52
37304;BME280;23188;51.188;16.374;2023-01-31T10:09:36;100289.37;;;5.05;92.47
37304;BME280;23188;51.188;16.374;2023-01-31T10:13:51;100293.52;;;5.00;92.46
37304;BME280;23188;51.188;16.374;2023-01-31T10:18:04;100294.10;;;5.08;91.77
37304;BME280;23188;51.188;16.374;2023-01-31T10:22:15;100285.23;;;5.13;92.48
37304;BME280;23188;51.188;16.374;2023-01-31T10:26:32;100289.46;;;5.19;91.98
37304;BME280;23188;51.188;16.374;2023-01-31T10:30:58;100279.36;;;5.17;90.54
37304;BME280;23188;51.188;16.374;2023-01-31T10:39:50;100269.08;;;5.37;91.32
37304;BME280;23188;51.188;16.374;2023-01-31T10:44:00;100265.52;;;5.37;91.12
37304;BME280;23188;51.188;16.374;2023-01-31T10:48:18;100258.98;;;5.31;91.80
37304;BME280;23188;51.188;16.374;2023-01-31T10:56:41;100264.25;;;5.29;94.54
37304;BME280;23188;51.188;16.374;2023-01-31T11:00:43;100261.77;;;5.47;95.90
37304;BME280;23188;51.188;16.374;2023-01-31T11:04:50;100258.97;;;5.44;94.77
37304;BME280;23188;51.188;16.374;2023-01-31T11:09:18;100256.58;;;5.37;95.30
37304;BME280;23188;51.188;16.374;2023-01-31T11:13:25;100253.44;;;5.24;95.77
37304;BME280;23188;51.188;16.374;2023-01-31T11:17:27;100255.98;;;5.20;96.53
37304;BME280;23188;51.188;16.374;2023-01-31T11:21:31;100244.46;;;5.10;97.45
37304;BME280;23188;51.188;16.374;2023-01-31T11:25:34;100244.86;;;5.06;98.22
37304;BME280;23188;51.188;16.374;2023-01-31T11:29:47;100227.27;;;5.06;97.56
37304;BME280;23188;51.188;16.374;2023-01-31T11:33:59;100223.48;;;5.17;97.99
37304;BME280;23188;51.188;16.374;2023-01-31T11:42:13;100206.19;;;5.35;97.17
37304;BME280;23188;51.188;16.374;2023-01-31T11:46:16;100199.45;;;5.36;97.01
37304;BME280;23188;51.188;16.374;2023-01-31T11:50:41;100197.91;;;5.38;96.89
37304;BME280;23188;51.188;16.374;2023-01-31T11:54:53;100191.16;;;5.45;97.72
37304;BME280;23188;51.188;16.374;2023-01-31T11:59:02;100181.88;;;5.39;96.27
37304;BME280;23188;51.188;16.374;2023-01-31T12:03:15;100176.16;;;5.35;96.45
37304;BME280;23188;51.188;16.374;2023-01-31T12:07:24;100168.17;;;5.21;98.62
37304;BME280;23188;51.188;16.374;2023-01-31T12:11:32;100159.41;;;5.15;98.05
37304;BME280;23188;51.188;16.374;2023-01-31T12:15:34;100157.00;;;5.11;98.70
37304;BME280;23188;51.188;16.374;2023-01-31T12:36:39;100134.20;;;5.33;98.13
37304;BME280;23188;51.188;16.374;2023-01-31T12:49:57;100118.46;;;5.57;94.25
37304;BME280;23188;51.188;16.374;2023-01-31T13:08:58;100081.30;;;5.50;92.90
37304;BME280;23188;51.188;16.374;2023-01-31T13:17:40;100056.29;;;5.50;92.17
37304;BME280;23188;51.188;16.374;2023-01-31T13:21:47;100044.23;;;5.52;91.85
37304;BME280;23188;51.188;16.374;2023-01-31T13:26:01;100039.52;;;5.54;91.24
37304;BME280;23188;51.188;16.374;2023-01-31T13:30:16;100028.75;;;5.57;90.93
37304;BME280;23188;51.188;16.374;2023-01-31T13:34:51;100022.63;;;5.56;90.67
37304;BME280;23188;51.188;16.374;2023-01-31T13:38:55;100018.79;;;5.51;92.22
37304;BME280;23188;51.188;16.374;2023-01-31T13:43:07;100026.45;;;5.49;93.79
37304;BME280;23188;51.188;16.374;2023-01-31T13:47:30;100017.45;;;5.47;93.35
37304;BME280;23188;51.188;16.374;2023-01-31T13:51:39;100010.92;;;5.36;92.59
37304;BME280;23188;51.188;16.374;2023-01-31T13:56:03;100008.04;;;5.29;94.07
37304;BME280;23188;51.188;16.374;2023-01-31T14:04:35;100000.77;;;5.19;94.44
37304;BME280;23188;51.188;16.374;2023-01-31T14:13:29;99994.91;;;5.20;94.54
37304;BME280;23188;51.188;16.374;2023-01-31T14:30:44;99973.97;;;5.18;94.87
37304;BME280;23188;51.188;16.374;2023-01-31T14:34:49;99969.63;;;5.17;95.42
37304;BME280;23188;51.188;16.374;2023-01-31T14:43:23;99974.13;;;5.12;96.18
37304;BME280;23188;51.188;16.374;2023-01-31T15:01:10;99958.80;;;5.13;96.02
37304;BME280;23188;51.188;16.374;2023-01-31T15:09:37;99951.59;;;5.02;96.02
37304;BME280;23188;51.188;16.374;2023-01-31T15:18:00;99950.80;;;4.95;97.20
37304;BME280;23188;51.188;16.374;2023-01-31T15:22:06;99947.51;;;4.94;97.39
37304;BME280;23188;51.188;16.374;2023-01-31T15:26:09;99944.29;;;4.86;97.46
37304;BME280;23188;51.188;16.374;2023-01-31T15:30:22;99929.35;;;4.87;97.51
37304;BME280;23188;51.188;16.374;2023-01-31T15:34:46;99928.39;;;4.90;97.47
37304;BME280;23188;51.188;16.374;2023-01-31T15:39:37;99917.71;;;4.90;97.53
37304;BME280;23188;51.188;16.374;2023-01-31T15:43:42;99916.81;;;4.93;97.43
37304;BME280;23188;51.188;16.374;2023-01-31T15:47:54;99916.12;;;4.93;96.71
37304;BME280;23188;51.188;16.374;2023-01-31T15:52:19;99911.77;;;4.92;96.59
37304;BME280;23188;51.188;16.374;2023-01-31T15:56:25;99912.07;;;4.93;96.24
37304;BME280;23188;51.188;16.374;2023-01-31T16:00:35;99911.55;;;4.93;96.20
37304;BME280;23188;51.188;16.374;2023-01-31T16:04:38;99902.27;;;4.95;96.30
37304;BME280;23188;51.188;16.374;2023-01-31T16:08:40;99890.23;;;4.97;96.22
37304;BME280;23188;51.188;16.374;2023-01-31T16:12:49;99882.30;;;4.94;96.30
37304;BME280;23188;51.188;16.374;2023-01-31T16:16:56;99890.80;;;4.93;96.39
37304;BME280;23188;51.188;16.374;2023-01-31T16:21:24;99887.46;;;4.93;96.80
37304;BME280;23188;51.188;16.374;2023-01-31T16:25:26;99894.54;;;4.92;97.79
37304;BME280;23188;51.188;16.374;2023-01-31T16:29:39;99894.31;;;4.93;97.94
37304;BME280;23188;51.188;16.374;2023-01-31T16:34:21;99885.76;;;4.87;98.74
37304;BME280;23188;51.188;16.374;2023-01-31T16:38:26;99885.41;;;4.87;99.15
37304;BME280;23188;51.188;16.374;2023-01-31T16:42:32;99885.42;;;4.84;99.87
37304;BME280;23188;51.188;16.374;2023-01-31T16:46:42;99883.18;;;4.78;100.00
37304;BME280;23188;51.188;16.374;2023-01-31T16:50:47;99877.34;;;4.73;100.00
37304;BME280;23188;51.188;16.374;2023-01-31T16:54:53;99870.42;;;4.74;100.00
37304;BME280;23188;51.188;16.374;2023-01-31T16:58:57;99868.66;;;4.68;100.00
37304;BME280;23188;51.188;16.374;2023-01-31T17:03:01;99871.38;;;4.64;100.00
37304;BME280;23188;51.188;16.374;2023-01-31T17:07:06;99856.98;;;4.61;100.00
37304;BME280;23188;51.188;16.374;2023-01-31T17:11:15;99849.52;;;4.60;100.00
37304;BME280;23188;51.188;16.374;2023-01-31T17:15:39;99845.05;;;4.58;100.00
37304;BME280;23188;51.188;16.374;2023-01-31T17:19:46;99835.65;;;4.57;100.00
37304;BME280;23188;51.188;16.374;2023-01-31T17:23:48;99837.00;;;4.58;100.00
37304;BME280;23188;51.188;16.374;2023-01-31T17:27:50;99827.52;;;4.58;100.00
37304;BME280;23188;51.188;16.374;2023-01-31T17:31:52;99821.83;;;4.59;100.00
37304;BME280;23188;51.188;16.374;2023-01-31T17:35:53;99827.45;;;4.56;100.00
37304;BME280;23188;51.188;16.374;2023-01-31T17:39:55;99816.64;;;4.55;100.00
37304;BME280;23188;51.188;16.374;2023-01-31T17:43:57;99812.46;;;4.52;100.00
37304;BME280;23188;51.188;16.374;2023-01-31T17:47:58;99814.65;;;4.50;100.00
37304;BME280;23188;51.188;16.374;2023-01-31T17:52:02;99801.02;;;4.49;100.00
37304;BME280;23188;51.188;16.374;2023-01-31T17:56:04;99796.02;;;4.48;100.00
37304;BME280;23188;51.188;16.374;2023-01-31T18:00:08;99791.20;;;4.52;100.00
37304;BME280;23188;51.188;16.374;2023-01-31T18:04:13;99779.05;;;4.52;100.00
37304;BME280;23188;51.188;16.374;2023-01-31T18:08:15;99781.08;;;4.51;100.00
37304;BME280;23188;51.188;16.374;2023-01-31T18:12:17;99792.44;;;4.52;100.00
37304;BME280;23188;51.188;16.374;2023-01-31T18:16:19;99793.89;;;4.54;100.00
37304;BME280;23188;51.188;16.374;2023-01-31T18:20:21;99790.29;;;4.52;100.00
37304;BME280;23188;51.188;16.374;2023-01-31T18:24:24;99785.91;;;4.55;100.00
37304;BME280;23188;51.188;16.374;2023-01-31T18:28:26;99783.74;;;4.59;100.00
37304;BME280;23188;51.188;16.374;2023-01-31T18:32:28;99760.36;;;4.56;100.00
37304;BME280;23188;51.188;16.374;2023-01-31T18:36:29;99763.50;;;4.54;100.00
37304;BME280;23188;51.188;16.374;2023-01-31T18:40:31;99753.52;;;4.59;100.00
37304;BME280;23188;51.188;16.374;2023-01-31T18:45:03;99744.39;;;4.59;100.00
37304;BME280;23188;51.188;16.374;2023-01-31T18:49:05;99751.08;;;4.61;100.00
37304;BME280;23188;51.188;16.374;2023-01-31T18:53:07;99759.41;;;4.63;100.00
37304;BME280;23188;51.188;16.374;2023-01-31T19:02:09;99754.40;;;4.69;100.00
37304;BME280;23188;51.188;16.374;2023-01-31T19:06:26;99756.19;;;4.72;100.00
37304;BME280;23188;51.188;16.374;2023-01-31T19:10:28;99751.60;;;4.72;100.00
37304;BME280;23188;51.188;16.374;2023-01-31T19:14:30;99735.91;;;4.76;100.00
37304;BME280;23188;51.188;16.374;2023-01-31T19:18:32;99729.58;;;4.78;100.00
37304;BME280;23188;51.188;16.374;2023-01-31T19:22:34;99737.46;;;4.84;100.00
37304;BME280;23188;51.188;16.374;2023-01-31T19:26:36;99740.28;;;4.87;100.00
37304;BME280;23188;51.188;16.374;2023-01-31T19:30:38;99725.29;;;4.93;100.00
37304;BME280;23188;51.188;16.374;2023-01-31T19:35:06;99723.15;;;4.93;100.00
37304;BME280;23188;51.188;16.374;2023-01-31T19:39:10;99727.10;;;4.95;100.00
37304;BME280;23188;51.188;16.374;2023-01-31T19:43:13;99721.39;;;4.96;100.00
37304;BME280;23188;51.188;16.374;2023-01-31T19:47:15;99716.16;;;4.95;100.00
37304;BME280;23188;51.188;16.374;2023-01-31T19:51:20;99706.61;;;4.91;100.00
37304;BME280;23188;51.188;16.374;2023-01-31T19:55:23;99696.71;;;4.92;100.00
37304;BME280;23188;51.188;16.374;2023-01-31T19:59:25;99689.16;;;4.87;100.00
37304;BME280;23188;51.188;16.374;2023-01-31T20:03:33;99693.62;;;4.85;100.00
37304;BME280;23188;51.188;16.374;2023-01-31T20:07:35;99685.91;;;4.88;100.00
37304;BME280;23188;51.188;16.374;2023-01-31T20:11:45;99685.27;;;4.92;100.00
37304;BME280;23188;51.188;16.374;2023-01-31T20:15:46;99670.73;;;4.97;100.00
37304;BME280;23188;51.188;16.374;2023-01-31T20:19:55;99681.02;;;5.03;100.00
37304;BME280;23188;51.188;16.374;2023-01-31T20:23:57;99669.47;;;5.08;100.00
37304;BME280;23188;51.188;16.374;2023-01-31T20:28:11;99676.86;;;5.13;100.00
37304;BME280;23188;51.188;16.374;2023-01-31T20:32:13;99680.16;;;5.13;100.00
37304;BME280;23188;51.188;16.374;2023-01-31T20:36:18;99679.18;;;5.09;100.00
37304;BME280;23188;51.188;16.374;2023-01-31T20:40:20;99676.79;;;5.11;100.00
37304;BME280;23188;51.188;16.374;2023-01-31T20:44:22;99684.74;;;5.10;100.00
37304;BME280;23188;51.188;16.374;2023-01-31T20:48:23;99691.80;;;5.10;100.00
37304;BME280;23188;51.188;16.374;2023-01-31T20:52:25;99691.70;;;5.14;100.00
37304;BME280;23188;51.188;16.374;2023-01-31T21:07:22;99670.85;;;5.36;100.00
37304;BME280;23188;51.188;16.374;2023-01-31T21:11:47;99662.52;;;5.37;100.00
37304;BME280;23188;51.188;16.374;2023-01-31T21:15:54;99669.26;;;5.39;100.00
37304;BME280;23188;51.188;16.374;2023-01-31T21:20:00;99673.87;;;5.36;100.00
37304;BME280;23188;51.188;16.374;2023-01-31T21:24:01;99670.14;;;5.31;100.00
37304;BME280;23188;51.188;16.374;2023-01-31T21:28:25;99670.55;;;5.33;100.00
37304;BME280;23188;51.188;16.374;2023-01-31T21:32:28;99672.92;;;5.37;100.00
37304;BME280;23188;51.188;16.374;2023-01-31T21:36:30;99658.94;;;5.41;100.00
37304;BME280;23188;51.188;16.374;2023-01-31T21:40:36;99661.20;;;5.43;100.00
37304;BME280;23188;51.188;16.374;2023-01-31T21:44:41;99653.75;;;5.52;100.00
37304;BME280;23188;51.188;16.374;2023-01-31T21:48:43;99651.77;;;5.58;100.00
37304;BME280;23188;51.188;16.374;2023-01-31T21:52:47;99616.91;;;5.63;99.90
37304;BME280;23188;51.188;16.374;2023-01-31T21:56:49;99633.11;;;5.57;99.43
37304;BME280;23188;51.188;16.374;2023-01-31T22:01:16;99614.32;;;5.57;98.81
37304;BME280;23188;51.188;16.374;2023-01-31T22:05:19;99617.32;;;5.60;97.76
37304;BME280;23188;51.188;16.374;2023-01-31T22:09:22;99622.70;;;5.63;97.20
37304;BME280;23188;51.188;16.374;2023-01-31T22:13:24;99626.52;;;5.61;96.46
37304;BME280;23188;51.188;16.374;2023-01-31T22:17:26;99618.53;;;5.72;96.15
37304;BME280;23188;51.188;16.374;2023-01-31T22:21:30;99618.73;;;5.82;94.76
37304;BME280;23188;51.188;16.374;2023-01-31T22:25:36;99628.08;;;5.92;93.93
37304;BME280;23188;51.188;16.374;2023-01-31T22:34:35;99644.26;;;6.04;93.27
37304;BME280;23188;51.188;16.374;2023-01-31T22:38:48;99639.60;;;6.03;92.60
37304;BME280;23188;51.188;16.374;2023-01-31T22:42:50;99645.91;;;6.05;91.30
37304;BME280;23188;51.188;16.374;2023-01-31T22:46:54;99652.33;;;6.05;91.48
37304;BME280;23188;51.188;16.374;2023-01-31T22:51:00;99663.57;;;5.95;92.28
37304;BME280;23188;51.188;16.374;2023-01-31T22:55:03;99658.27;;;5.90;93.15
37304;BME280;23188;51.188;16.374;2023-01-31T22:59:05;99664.48;;;5.90;93.20
37304;BME280;23188;51.188;16.374;2023-01-31T23:03:09;99662.49;;;5.90;93.39
37304;BME280;23188;51.188;16.374;2023-01-31T23:07:12;99659.47;;;5.83;93.00
37304;BME280;23188;51.188;16.374;2023-01-31T23:11:16;99672.55;;;5.82;92.97
37304;BME280;23188;51.188;16.374;2023-01-31T23:15:18;99756.50;;;5.82;94.43
37304;BME280;23188;51.188;16.374;2023-01-31T23:19:21;99780.19;;;4.70;97.77
37304;BME280;23188;51.188;16.374;2023-01-31T23:23:24;99774.85;;;3.53;100.00
37304;BME280;23188;51.188;16.374;2023-01-31T23:27:56;99780.86;;;2.74;100.00
37304;BME280;23188;51.188;16.374;2023-01-31T23:31:58;99773.55;;;2.29;100.00
37304;BME280;23188;51.188;16.374;2023-01-31T23:36:00;99742.76;;;2.13;100.00
37304;BME280;23188;51.188;16.374;2023-01-31T23:40:03;99743.91;;;2.21;100.00
37304;BME280;23188;51.188;16.374;2023-01-31T23:44:18;99710.23;;;2.03;100.00
37304;BME280;23188;51.188;16.374;2023-01-31T23:48:20;99714.84;;;1.99;100.00
37304;BME280;23188;51.188;16.374;2023-01-31T23:52:23;99723.65;;;2.11;100.00
37304;BME280;23188;51.188;16.374;2023-01-31T23:56:24;99707.64;;;2.38;100.00
